Time;durP1;ratioP1;P1;durP2;ratioP2;P2;SDS_P1;SDS_P2;PMS_P1;PMS_P2;Temp;Humidity;BMP_temperature;BMP_pressure;BME280_temperature;BME280_humidity;BME280_pressure;Samples;Min_cycle;Max_cycle;Signal;HPM_P1;HPM_P2
2022/12/18 00:01:00;;;;;;;80.32;29.48;;;-3.00;99.90;;;;;;5109338;28;20043;-83
2022/12/18 00:03:26;;;;;;;81.07;29.33;;;-3.00;99.90;;;;;;5094286;28;20047;-83
2022/12/18 00:05:52;;;;;;;79.75;28.13;;;-3.00;99.90;;;;;;5094237;28;20079;-83
2022/12/18 00:08:19;;;;;;;71.63;27.20;;;-3.00;99.90;;;;;;5108684;28;20105;-82
2022/12/18 00:10:45;;;;;;;75.05;26.83;;;-3.00;99.90;;;;;;5093691;28;20043;-83
2022/12/18 00:13:11;;;;;;;73.22;29.63;;;-3.00;99.90;;;;;;5110495;28;20040;-83
2022/12/18 00:15:39;;;;;;;80.40;29.42;;;-3.00;99.90;;;;;;5095202;28;20036;-81
2022/12/18 00:18:05;;;;;;;78.78;29.35;;;-1.80;99.90;;;;;;5093731;27;20050;-83
2022/12/18 00:20:31;;;;;;;75.53;27.38;;;-3.00;99.90;;;;;;5114862;27;20387;-83
2022/12/18 00:22:56;;;;;;;75.25;27.27;;;-3.00;99.90;;;;;;5097269;27;20075;-82
2022/12/18 00:25:22;;;;;;;74.45;24.50;;;-3.00;99.90;;;;;;5114815;27;20035;-83
2022/12/18 00:27:48;;;;;;;75.25;27.42;;;-3.10;99.90;;;;;;5099132;27;20039;-83
2022/12/18 00:30:14;;;;;;;67.63;25.92;;;-3.10;99.90;;;;;;5112295;27;20091;-83
2022/12/18 00:32:40;;;;;;;80.90;28.63;;;-3.10;99.90;;;;;;5115417;27;20043;-83
2022/12/18 00:35:07;;;;;;;80.63;28.55;;;-3.80;99.90;;;;;;5108642;27;20043;-83
2022/12/18 00:37:36;;;;;;;69.10;26.98;;;-3.20;99.90;;;;;;5111090;27;20307;-82
2022/12/18 00:40:02;;;;;;;76.50;29.70;;;-3.20;99.90;;;;;;5109317;27;20050;-83
2022/12/18 00:45:12;;;;;;;82.03;27.88;;;-3.20;99.90;;;;;;5110542;27;20046;-83
2022/12/18 00:47:38;;;;;;;71.70;25.80;;;-3.20;99.90;;;;;;5108506;27;20050;-83
2022/12/18 00:50:04;;;;;;;69.38;26.25;;;-3.20;99.90;;;;;;5094145;27;20043;-83
2022/12/18 00:52:29;;;;;;;73.35;26.48;;;-3.20;99.90;;;;;;5108107;27;20035;-82
2022/12/18 00:54:55;;;;;;;70.70;27.85;;;-3.20;99.90;;;;;;5093073;27;20371;-82
2022/12/18 00:57:21;;;;;;;73.28;28.63;;;-3.30;99.90;;;;;;5091748;27;20057;-82
2022/12/18 00:59:46;;;;;;;66.68;26.35;;;-3.30;99.90;;;;;;5108841;27;20118;-83
2022/12/18 01:02:12;;;;;;;71.82;26.95;;;-3.30;99.90;;;;;;5093173;27;20372;-83
2022/12/18 01:04:38;;;;;;;71.15;25.80;;;-3.30;99.90;;;;;;5090408;27;20484;-83
2022/12/18 01:07:03;;;;;;;67.15;24.20;;;-3.30;99.90;;;;;;5076604;27;20050;-83
2022/12/18 01:09:29;;;;;;;64.38;25.52;;;-2.30;99.90;;;;;;5107097;27;20068;-83
2022/12/18 01:11:55;;;;;;;66.78;25.73;;;-3.30;99.90;;;;;;5093002;27;20096;-83
2022/12/18 01:14:20;;;;;;;70.35;26.48;;;-3.40;99.90;;;;;;5091488;27;20039;-83
2022/12/18 01:16:46;;;;;;;68.50;26.23;;;-3.40;99.90;;;;;;5108718;27;20047;-83
2022/12/18 01:19:12;;;;;;;68.57;25.88;;;-3.40;99.90;;;;;;5109290;27;20497;-83
2022/12/18 01:21:37;;;;;;;65.63;26.05;;;-3.40;99.90;;;;;;5091039;27;20039;-83
2022/12/18 01:24:04;;;;;;;70.95;26.75;;;-3.40;99.90;;;;;;5110152;27;20600;-82
2022/12/18 01:26:30;;;;;;;69.88;25.15;;;-3.40;99.90;;;;;;5107014;27;20044;-83
2022/12/18 01:28:56;;;;;;;72.82;25.00;;;-3.00;99.90;;;;;;5092811;27;20119;-84
2022/12/18 01:31:25;;;;;;;71.20;27.00;;;-3.50;99.90;;;;;;5090597;27;20042;-83
2022/12/18 01:33:52;;;;;;;73.47;23.95;;;-3.50;99.90;;;;;;5091314;27;20039;-83
2022/12/18 01:36:23;;;;;;;75.28;27.65;;;-3.50;99.90;;;;;;5109024;27;20046;-84
2022/12/18 01:38:50;;;;;;;71.80;26.33;;;-3.50;99.90;;;;;;5090139;27;20088;-83
2022/12/18 01:41:19;;;;;;;68.10;25.38;;;-3.50;99.90;;;;;;5109658;27;20064;-83
2022/12/18 01:43:53;;;;;;;80.38;28.30;;;-3.60;99.90;;;;;;5107562;27;20761;-82
2022/12/18 01:46:22;;;;;;;79.80;27.35;;;-3.60;99.90;;;;;;5092093;27;20506;-84
2022/12/18 01:48:50;;;;;;;77.93;27.65;;;-3.60;99.90;;;;;;5107006;27;20043;-83
2022/12/18 01:51:16;;;;;;;79.30;27.30;;;-3.60;99.90;;;;;;5090898;27;20192;-83
2022/12/18 01:53:44;;;;;;;70.43;26.42;;;-3.70;99.90;;;;;;5091924;27;20041;-82
2022/12/18 01:56:15;;;;;;;67.72;26.15;;;-3.60;99.90;;;;;;5125287;27;20041;-83
2022/12/18 01:59:02;;;;;;;66.78;26.92;;;-3.70;99.90;;;;;;5128325;27;20381;-83
2022/12/18 02:01:29;;;;;;;71.20;26.65;;;-3.70;99.90;;;;;;5126189;27;20047;-83
2022/12/18 02:03:55;;;;;;;77.47;25.77;;;-3.70;99.90;;;;;;5108329;28;20093;-83
2022/12/18 02:06:34;;;;;;;70.43;25.45;;;-3.90;99.90;;;;;;5126504;27;20082;-83
2022/12/18 02:09:16;;;;;;;66.95;25.80;;;-3.70;99.90;;;;;;5107007;28;20051;-82
2022/12/18 02:11:45;;;;;;;71.38;24.95;;;-3.70;99.90;;;;;;5127583;28;20050;-82
2022/12/18 02:14:19;;;;;;;70.15;25.52;;;-3.70;99.90;;;;;;5106624;28;20498;-82
2022/12/18 02:17:00;;;;;;;64.45;26.30;;;-3.80;99.90;;;;;;5090947;28;20151;-83
2022/12/18 02:19:42;;;;;;;65.18;26.45;;;-3.80;99.90;;;;;;5126436;27;20094;-83
2022/12/18 02:22:10;;;;;;;74.65;27.15;;;-3.80;99.90;;;;;;5124623;28;20100;-83
2022/12/18 02:24:56;;;;;;;80.53;27.38;;;-3.90;99.90;;;;;;5127644;28;20043;-83
2022/12/18 02:27:22;;;;;;;70.38;27.70;;;-3.90;99.90;;;;;;5126368;28;20039;-83
2022/12/18 02:29:54;;;;;;;72.38;25.98;;;-4.00;99.90;;;;;;5090696;28;20128;-83
2022/12/18 02:32:25;;;;;;;72.43;27.70;;;-4.10;99.90;;;;;;5108299;28;20050;-83
2022/12/18 02:34:53;;;;;;;79.53;26.05;;;-4.10;99.90;;;;;;5125093;28;20046;-83
2022/12/18 02:37:20;;;;;;;76.07;28.02;;;-4.10;99.90;;;;;;5109462;28;20129;-83
2022/12/18 02:39:48;;;;;;;82.43;29.30;;;-4.10;99.90;;;;;;5106271;28;20047;-83
2022/12/18 02:42:15;;;;;;;92.63;30.25;;;-4.10;99.90;;;;;;5108304;28;20494;-82
2022/12/18 02:44:50;;;;;;;73.05;27.30;;;-4.10;99.90;;;;;;5107594;28;20483;-83
2022/12/18 02:47:20;;;;;;;77.65;27.48;;;-4.20;99.90;;;;;;5107382;28;20054;-83
2022/12/18 02:49:57;;;;;;;69.28;26.52;;;-4.20;99.90;;;;;;5108475;28;20099;-83
2022/12/18 02:53:02;;;;;;;70.53;26.08;;;-4.20;99.90;;;;;;5106096;28;20936;-83
2022/12/18 02:55:42;;;;;;;70.60;27.50;;;-4.20;99.90;;;;;;5077106;28;20082;-82
2022/12/18 02:58:38;;;;;;;79.25;27.08;;;-4.20;99.90;;;;;;5107787;28;20047;-83
2022/12/18 03:01:26;;;;;;;86.18;28.98;;;-4.20;99.90;;;;;;5109759;27;20118;-83
2022/12/18 03:03:57;;;;;;;76.53;28.60;;;-4.20;99.90;;;;;;5094533;27;20042;-83
2022/12/18 03:06:35;;;;;;;71.50;25.65;;;-4.20;99.90;;;;;;5111595;27;20398;-82
2022/12/18 03:09:10;;;;;;;82.28;26.67;;;-4.20;99.90;;;;;;5110732;27;20043;-83
2022/12/18 03:14:30;;;;;;;83.38;28.27;;;-4.30;99.90;;;;;;5109930;27;20085;-82
2022/12/18 03:17:02;;;;;;;74.00;27.98;;;-4.30;99.90;;;;;;5111420;27;20043;-83
2022/12/18 03:19:31;;;;;;;80.28;27.17;;;-4.30;99.90;;;;;;5094164;27;20125;-83
2022/12/18 03:22:00;;;;;;;85.25;29.42;;;-4.30;99.90;;;;;;5092815;27;20051;-83
2022/12/18 03:24:29;;;;;;;78.63;26.15;;;-4.30;99.90;;;;;;5112450;27;20394;-83
2022/12/18 03:26:59;;;;;;;78.78;27.85;;;-4.30;99.90;;;;;;5110251;27;20398;-83
2022/12/18 03:29:33;;;;;;;83.38;29.17;;;-4.30;99.90;;;;;;5111470;27;20122;-82
2022/12/18 03:32:04;;;;;;;92.85;27.77;;;-4.40;99.90;;;;;;5110635;27;20095;-83
2022/12/18 03:34:34;;;;;;;75.15;28.75;;;-4.40;99.90;;;;;;5110788;27;20039;-83
2022/12/18 03:37:00;;;;;;;70.38;28.33;;;-4.40;99.90;;;;;;5111800;27;20122;-83
2022/12/18 03:39:26;;;;;;;74.95;27.75;;;-4.40;99.90;;;;;;5093489;27;20224;-83
2022/12/18 03:42:15;;;;;;;74.93;27.02;;;-4.40;99.90;;;;;;5094611;27;20160;-82
2022/12/18 03:45:00;;;;;;;73.90;26.02;;;-4.40;99.90;;;;;;5110398;27;20047;-82
2022/12/18 03:47:28;;;;;;;81.53;26.88;;;-4.40;99.90;;;;;;5111528;27;20043;-82
2022/12/18 03:50:19;;;;;;;78.38;28.10;;;-4.50;99.90;;;;;;5094436;27;20417;-83
2022/12/18 03:52:57;;;;;;;77.70;28.27;;;-4.50;99.90;;;;;;5109483;27;20164;-83
2022/12/18 03:55:25;;;;;;;74.82;28.05;;;-4.50;99.90;;;;;;5094039;27;20054;-83
2022/12/18 03:57:53;;;;;;;74.63;27.70;;;-4.50;99.90;;;;;;5113913;27;20063;-83
2022/12/18 04:00:20;;;;;;;82.65;28.42;;;-4.50;99.90;;;;;;5101375;27;20050;-82
2022/12/18 04:02:55;;;;;;;83.65;29.85;;;-4.50;99.90;;;;;;5120785;27;20100;-82
2022/12/18 04:05:23;;;;;;;79.80;28.02;;;-4.60;99.90;;;;;;5118993;27;20051;-83
2022/12/18 04:07:52;;;;;;;78.68;28.65;;;-4.50;99.90;;;;;;5120200;27;20043;-84
2022/12/18 04:10:18;;;;;;;85.05;30.40;;;-4.60;99.90;;;;;;5100583;27;20076;-84
2022/12/18 04:12:44;;;;;;;83.38;29.70;;;-4.40;99.90;;;;;;5140543;27;20043;-83
2022/12/18 04:15:11;;;;;;;74.75;27.83;;;-4.60;99.90;;;;;;5116262;27;20047;-84
2022/12/18 04:17:38;;;;;;;72.22;26.45;;;-4.60;99.90;;;;;;5097165;27;20356;-83
2022/12/18 04:20:05;;;;;;;77.30;26.92;;;-4.60;99.90;;;;;;5134178;27;20047;-84
2022/12/18 04:22:31;;;;;;;69.63;27.95;;;-4.60;99.90;;;;;;5096401;27;20053;-83
2022/12/18 04:24:56;;;;;;;79.57;28.10;;;-4.60;99.90;;;;;;5112137;27;20136;-84
2022/12/18 04:27:22;;;;;;;81.35;27.25;;;-4.70;99.90;;;;;;5093035;27;20043;-84
2022/12/18 04:29:47;;;;;;;75.82;27.20;;;-4.70;99.90;;;;;;5111119;27;20050;-83
2022/12/18 04:32:13;;;;;;;79.00;28.80;;;-4.70;99.90;;;;;;5109691;27;20074;-83
2022/12/18 04:34:39;;;;;;;80.63;26.10;;;-4.70;99.90;;;;;;5092983;27;20434;-83
2022/12/18 04:37:04;;;;;;;83.93;28.02;;;-4.70;99.90;;;;;;5076681;27;20080;-84
2022/12/18 04:39:30;;;;;;;80.97;27.55;;;-4.70;99.90;;;;;;5109894;27;20410;-83
2022/12/18 04:41:55;;;;;;;63.83;25.27;;;-4.70;99.90;;;;;;5094110;27;20050;-83
2022/12/18 04:44:21;;;;;;;75.32;26.88;;;-4.70;99.90;;;;;;5109612;27;20049;-83
2022/12/18 04:46:47;;;;;;;73.25;26.80;;;-4.70;99.90;;;;;;5110305;27;20084;-83
2022/12/18 04:49:12;;;;;;;77.68;27.27;;;-4.70;99.90;;;;;;5109081;27;20070;-83
2022/12/18 04:51:38;;;;;;;76.82;27.15;;;-4.70;99.90;;;;;;5076354;27;20130;-83
2022/12/18 04:54:04;;;;;;;82.25;27.45;;;-4.80;99.90;;;;;;5109326;27;20043;-83
2022/12/18 04:56:31;;;;;;;68.70;26.15;;;-4.70;99.90;;;;;;5091847;27;20039;-83
2022/12/18 04:58:57;;;;;;;78.75;25.60;;;-4.70;99.90;;;;;;5109542;27;20049;-83
2022/12/18 05:01:23;;;;;;;75.50;27.35;;;-4.70;99.90;;;;;;5091491;27;20464;-84
2022/12/18 05:03:48;;;;;;;77.05;25.67;;;-4.70;99.90;;;;;;5109631;27;20043;-83
2022/12/18 05:06:14;;;;;;;74.55;26.17;;;-4.70;99.90;;;;;;5108482;27;20039;-83
2022/12/18 05:08:40;;;;;;;73.70;24.77;;;-5.00;99.90;;;;;;5092425;27;20079;-83
2022/12/18 05:11:11;;;;;;;75.47;25.90;;;-4.70;99.90;;;;;;5109585;27;20070;-83
2022/12/18 05:13:37;;;;;;;74.70;26.83;;;-4.70;99.90;;;;;;5109035;27;20058;-83
2022/12/18 05:16:04;;;;;;;65.63;26.23;;;-4.70;99.90;;;;;;5092184;27;20486;-83
2022/12/18 05:18:30;;;;;;;73.50;26.13;;;-4.70;99.90;;;;;;5108528;27;20058;-84
2022/12/18 05:20:55;;;;;;;76.60;25.83;;;-4.70;99.90;;;;;;5092183;27;20055;-83
2022/12/18 05:23:22;;;;;;;70.75;25.58;;;-4.70;99.90;;;;;;5107411;27;20054;-83
2022/12/18 05:25:52;;;;;;;61.28;22.58;;;-4.70;99.90;;;;;;5109484;27;20658;-83
2022/12/18 05:28:18;;;;;;;70.45;25.52;;;-4.70;99.90;;;;;;5108440;27;20043;-83
2022/12/18 05:30:51;;;;;;;64.47;22.25;;;-4.70;99.90;;;;;;5108824;27;20051;-83
2022/12/18 05:33:18;;;;;;;61.80;22.98;;;-4.70;99.90;;;;;;5092336;27;20043;-84
2022/12/18 05:35:44;;;;;;;67.57;25.05;;;-4.80;99.90;;;;;;5108617;27;20096;-83
2022/12/18 05:38:10;;;;;;;68.45;24.92;;;-4.80;99.90;;;;;;5109062;27;20031;-84
2022/12/18 05:40:43;;;;;;;66.55;23.65;;;-4.80;99.90;;;;;;5126879;27;20046;-83
2022/12/18 05:43:09;;;;;;;64.82;21.75;;;-4.80;99.90;;;;;;5092554;27;20035;-84
2022/12/18 05:45:40;;;;;;;59.22;22.25;;;-4.80;99.90;;;;;;5109355;27;20059;-84
2022/12/18 05:48:06;;;;;;;68.82;23.90;;;-4.80;99.90;;;;;;5091320;27;20047;-83
2022/12/18 05:50:39;;;;;;;68.43;22.75;;;-4.80;99.90;;;;;;5109030;27;20130;-84
2022/12/18 05:53:06;;;;;;;52.60;21.88;;;-4.90;99.90;;;;;;5108759;27;20084;-84
2022/12/18 05:55:40;;;;;;;65.85;23.33;;;-4.80;99.90;;;;;;5092879;27;20031;-84
2022/12/18 05:58:07;;;;;;;55.45;21.88;;;-4.90;99.90;;;;;;5126875;27;20050;-84
2022/12/18 06:00:34;;;;;;;64.20;21.65;;;-4.90;99.90;;;;;;5127463;27;20051;-82
2022/12/18 06:03:00;;;;;;;57.40;23.27;;;-4.90;99.90;;;;;;5127212;27;20046;-84
2022/12/18 06:05:26;;;;;;;62.10;21.50;;;-4.90;99.90;;;;;;5127073;27;20039;-84
2022/12/18 06:07:52;;;;;;;56.33;21.73;;;-4.90;99.90;;;;;;5127657;27;20398;-83
2022/12/18 06:10:18;;;;;;;64.53;23.20;;;-4.90;99.90;;;;;;5126928;27;20043;-84
2022/12/18 06:12:44;;;;;;;56.42;21.05;;;-4.90;99.90;;;;;;5127060;28;20503;-83
2022/12/18 06:15:10;;;;;;;57.55;21.20;;;-4.90;99.90;;;;;;5107317;28;20046;-84
2022/12/18 06:17:36;;;;;;;59.97;20.83;;;-4.90;99.90;;;;;;5126440;28;20043;-84
2022/12/18 06:20:03;;;;;;;58.05;21.48;;;-4.90;99.90;;;;;;5125853;28;20054;-83
2022/12/18 06:22:31;;;;;;;60.17;21.02;;;-5.00;99.90;;;;;;5125766;28;20499;-84
2022/12/18 06:24:57;;;;;;;60.83;19.95;;;-4.90;99.90;;;;;;5108044;28;20051;-84
2022/12/18 06:27:23;;;;;;;55.75;20.70;;;-5.00;99.90;;;;;;5125856;28;20050;-84
2022/12/18 06:29:48;;;;;;;50.58;20.73;;;-5.00;99.90;;;;;;5126470;28;20152;-84
2022/12/18 06:32:14;;;;;;;53.05;21.30;;;-4.90;99.90;;;;;;5107056;28;20505;-84
2022/12/18 06:34:40;;;;;;;46.40;20.17;;;-5.00;99.90;;;;;;5110322;27;20043;-83
2022/12/18 06:37:05;;;;;;;46.28;18.88;;;-5.00;99.90;;;;;;5130543;27;20116;-84
2022/12/18 06:39:31;;;;;;;57.88;19.08;;;-5.00;99.90;;;;;;5130348;27;20049;-84
2022/12/18 06:41:57;;;;;;;50.65;20.38;;;-5.00;99.90;;;;;;5130613;27;20042;-84
2022/12/18 06:44:23;;;;;;;56.45;21.13;;;-5.10;99.90;;;;;;5111463;27;20455;-84
2022/12/18 06:46:48;;;;;;;51.42;19.67;;;-5.10;99.90;;;;;;5130233;27;20272;-83
2022/12/18 06:49:15;;;;;;;50.28;20.25;;;-5.10;99.90;;;;;;5110687;27;20051;-84
2022/12/18 06:51:42;;;;;;;45.50;18.40;;;-5.10;99.90;;;;;;5129872;27;20043;-84
2022/12/18 06:54:07;;;;;;;45.33;19.90;;;-5.20;99.90;;;;;;5111473;27;20587;-85
2022/12/18 06:56:33;;;;;;;48.45;19.95;;;-5.20;99.90;;;;;;5129419;27;20039;-84
2022/12/18 06:58:59;;;;;;;43.80;17.35;;;-5.20;99.90;;;;;;5111486;27;20106;-84
2022/12/18 07:01:25;;;;;;;44.03;17.23;;;-5.20;99.90;;;;;;5110941;27;20130;-84
2022/12/18 07:03:55;;;;;;;51.38;18.52;;;-5.20;99.90;;;;;;5111072;27;20046;-84
2022/12/18 07:06:23;;;;;;;39.75;17.73;;;-5.20;99.90;;;;;;5110523;27;20122;-84
2022/12/18 07:08:50;;;;;;;47.78;18.52;;;-5.20;99.90;;;;;;5110985;27;20047;-85
2022/12/18 07:11:17;;;;;;;49.20;19.40;;;-5.30;99.90;;;;;;5111523;27;20401;-85
2022/12/18 07:13:44;;;;;;;44.72;18.30;;;-5.20;99.90;;;;;;5110757;27;20903;-84
2022/12/18 07:16:15;;;;;;;43.70;18.02;;;-5.30;99.90;;;;;;5111108;27;20028;-85
2022/12/18 07:18:41;;;;;;;45.95;19.27;;;-5.30;99.90;;;;;;5094088;27;20039;-84
2022/12/18 07:21:09;;;;;;;40.88;17.77;;;-5.30;99.90;;;;;;5110590;27;20444;-85
2022/12/18 07:23:35;;;;;;;41.33;18.33;;;-5.30;99.90;;;;;;5110157;27;20046;-84
2022/12/18 07:26:07;;;;;;;44.33;17.23;;;-5.30;99.90;;;;;;5076990;27;20137;-84
2022/12/18 07:28:33;;;;;;;39.83;16.35;;;-5.30;99.90;;;;;;5110928;27;20124;-84
2022/12/18 07:31:17;;;;;;;38.92;17.80;;;-5.30;99.90;;;;;;5094346;27;20051;-84
2022/12/18 07:33:43;;;;;;;40.15;16.70;;;-5.30;99.90;;;;;;5094119;27;20043;-85
2022/12/18 07:36:10;;;;;;;36.85;15.55;;;-5.20;99.90;;;;;;5110557;27;20047;-84
2022/12/18 07:38:36;;;;;;;35.88;15.55;;;-5.20;99.90;;;;;;5095200;27;20394;-85
2022/12/18 07:41:03;;;;;;;35.63;16.13;;;-5.20;99.90;;;;;;5111060;27;20140;-85
2022/12/18 07:43:29;;;;;;;44.03;18.38;;;-4.90;99.90;;;;;;5141218;27;20043;-85
2022/12/18 07:45:55;;;;;;;35.25;16.48;;;-5.20;99.90;;;;;;5122841;27;20035;-83
2022/12/18 07:48:20;;;;;;;38.22;15.50;;;-5.20;99.90;;;;;;5123909;27;20043;-83
2022/12/18 07:50:46;;;;;;;38.10;16.75;;;-5.20;99.90;;;;;;5107041;27;20059;-83
2022/12/18 07:53:12;;;;;;;38.92;15.95;;;-5.20;99.90;;;;;;5125770;27;20039;-86
2022/12/18 07:55:37;;;;;;;33.03;15.63;;;-5.20;99.90;;;;;;5107404;27;20073;-85
2022/12/18 07:58:04;;;;;;;36.67;15.73;;;-5.20;99.90;;;;;;5120105;27;20039;-88
2022/12/18 08:00:30;;;;;;;40.05;15.93;;;-5.20;99.90;;;;;;5117358;27;20086;-87
2022/12/18 08:02:57;;;;;;;36.45;15.88;;;-5.20;99.90;;;;;;5115825;27;20044;-88
2022/12/18 08:05:23;;;;;;;38.33;15.68;;;-5.20;99.90;;;;;;5115320;27;20124;-85
2022/12/18 08:07:49;;;;;;;33.38;15.23;;;-5.20;99.90;;;;;;5112606;27;20051;-85
2022/12/18 08:10:15;;;;;;;35.47;15.68;;;-5.20;99.90;;;;;;5110051;27;20352;-88
2022/12/18 08:12:41;;;;;;;35.00;15.65;;;-5.20;99.90;;;;;;5092999;27;20505;-86
2022/12/18 08:15:07;;;;;;;37.83;15.60;;;-5.20;99.90;;;;;;5094953;27;20058;-86
2022/12/18 08:17:32;;;;;;;37.60;15.77;;;-5.20;99.90;;;;;;5096799;27;20092;-84
2022/12/18 08:19:58;;;;;;;33.65;16.25;;;-5.20;99.90;;;;;;5096543;27;20051;-84
2022/12/18 08:22:24;;;;;;;31.20;15.85;;;-5.20;99.90;;;;;;5113424;27;20039;-85
2022/12/18 08:24:50;;;;;;;30.20;14.95;;;-5.10;99.90;;;;;;5114919;27;20070;-87
2022/12/18 08:27:16;;;;;;;36.90;16.52;;;-5.10;99.90;;;;;;5094177;27;20494;-82
2022/12/18 08:29:41;;;;;;;36.78;15.82;;;-5.10;99.90;;;;;;5093459;27;20121;-85
2022/12/18 08:32:07;;;;;;;28.63;14.30;;;-5.10;99.90;;;;;;5109458;27;20130;-85
2022/12/18 08:34:33;;;;;;;35.72;15.27;;;-5.70;99.90;;;;;;5093587;27;20058;-87
2022/12/18 08:36:58;;;;;;;36.75;15.77;;;-3.90;99.90;;;;;;5128422;27;20083;-87
2022/12/18 08:39:24;;;;;;;32.33;13.85;;;-5.00;99.90;;;;;;5109872;27;20042;-87
2022/12/18 08:44:37;;;;;;;32.15;15.18;;;-5.00;99.90;;;;;;5095107;27;20138;-86
2022/12/18 08:47:03;;;;;;;35.35;15.43;;;-5.00;99.90;;;;;;5110201;27;20039;-90
2022/12/18 08:49:29;;;;;;;32.08;15.20;;;-5.00;99.90;;;;;;5109152;27;20047;-87
2022/12/18 08:51:57;;;;;;;35.83;14.98;;;-5.00;99.90;;;;;;5109656;27;20043;-91
2022/12/18 08:54:22;;;;;;;30.83;13.80;;;-5.00;99.90;;;;;;5109091;27;20078;-90
2022/12/18 08:56:49;;;;;;;32.13;16.05;;;-5.00;99.90;;;;;;5109091;27;20082;-88
2022/12/18 08:59:16;;;;;;;32.33;15.93;;;-4.90;99.90;;;;;;5108960;27;20106;-87
2022/12/18 09:01:46;;;;;;;37.25;16.73;;;-4.90;99.90;;;;;;5091883;27;20085;-87
2022/12/18 09:04:13;;;;;;;32.80;15.10;;;-4.90;99.90;;;;;;5109178;27;20053;-86
2022/12/18 09:06:38;;;;;;;35.72;15.98;;;-4.90;99.90;;;;;;5108859;27;20078;-87
2022/12/18 09:09:04;;;;;;;32.33;14.93;;;-4.80;99.90;;;;;;5092217;27;20151;-90
2022/12/18 09:11:31;;;;;;;27.63;13.65;;;-4.80;99.90;;;;;;5109431;27;20453;-91
2022/12/18 09:13:59;;;;;;;30.10;14.27;;;-4.70;99.90;;;;;;5109780;27;20398;-92
2022/12/18 09:16:27;;;;;;;31.30;14.27;;;-4.70;99.90;;;;;;5109285;27;20039;-91
2022/12/18 09:18:59;;;;;;;30.77;15.38;;;-4.60;99.90;;;;;;5108441;27;20050;-88
2022/12/18 09:21:27;;;;;;;31.92;14.63;;;-4.60;99.90;;;;;;5108725;27;20417;-89
2022/12/18 09:23:54;;;;;;;30.80;13.57;;;-4.50;99.90;;;;;;5108653;27;20574;-90
2022/12/18 09:26:22;;;;;;;27.83;14.05;;;-4.50;99.90;;;;;;5108806;27;20525;-92
2022/12/18 09:28:48;;;;;;;29.45;14.40;;;-4.40;99.90;;;;;;5108659;27;20051;-92
2022/12/18 09:31:15;;;;;;;27.20;12.95;;;-4.30;99.90;;;;;;5108331;27;20038;-90
2022/12/18 09:33:41;;;;;;;22.98;13.38;;;-4.30;99.90;;;;;;5108777;27;20043;-89
2022/12/18 09:36:08;;;;;;;32.55;13.55;;;-4.20;99.90;;;;;;5091838;27;20051;-91
2022/12/18 09:38:35;;;;;;;28.95;12.98;;;-4.10;99.90;;;;;;5091402;27;20043;-91
2022/12/18 09:41:19;;;;;;;27.45;14.20;;;-4.00;99.90;;;;;;5108220;27;20047;-90
2022/12/18 09:43:52;;;;;;;27.38;13.88;;;-4.00;99.90;;;;;;5108199;27;20118;-90
2022/12/18 09:46:25;;;;;;;24.88;13.27;;;-3.80;99.90;;;;;;5108303;27;20039;-88
2022/12/18 09:48:52;;;;;;;;;;;-3.80;99.90;;;;;;5108742;27;20082;-92
2022/12/18 09:51:48;;;;;;;23.40;11.98;;;-3.70;99.90;;;;;;5092310;27;20349;-90
2022/12/18 09:54:20;;;;;;;27.20;12.27;;;-3.70;99.90;;;;;;5088048;27;20555;-92
2022/12/18 09:56:45;;;;;;;27.65;13.15;;;-2.80;99.90;;;;;;5109127;27;20083;-90
2022/12/18 09:59:36;;;;;;;21.92;11.48;;;-3.60;99.90;;;;;;5074958;27;20434;-88
2022/12/18 10:02:16;;;;;;;23.38;11.57;;;-3.60;99.90;;;;;;5127269;27;20047;-88
2022/12/18 10:04:42;;;;;;;21.80;10.95;;;-3.60;99.90;;;;;;5091869;28;20055;-90
2022/12/18 10:07:29;;;;;;;20.30;10.98;;;-3.60;99.90;;;;;;5108027;28;20563;-89
2022/12/18 10:10:06;;;;;;;21.65;11.35;;;-3.60;99.90;;;;;;5107729;27;20509;-90
2022/12/18 10:12:59;;;;;;;20.08;9.80;;;-3.50;99.90;;;;;;5091447;28;20039;-90
2022/12/18 10:15:47;;;;;;;14.30;7.88;;;-3.40;99.90;;;;;;5108601;28;20051;-90
2022/12/18 10:18:28;;;;;;;19.45;10.15;;;-3.40;99.90;;;;;;5090368;28;20139;-91
2022/12/18 10:21:00;;;;;;;24.75;11.38;;;-3.20;99.90;;;;;;5090899;28;20055;-90
2022/12/18 10:23:33;;;;;;;16.90;8.93;;;-3.10;99.90;;;;;;5090407;28;20035;-90
2022/12/18 10:26:05;;;;;;;17.75;10.20;;;-3.10;99.90;;;;;;5090828;28;20054;-90
2022/12/18 10:28:34;;;;;;;17.50;9.43;;;-2.90;99.90;;;;;;5107190;28;20103;-89
2022/12/18 10:31:00;;;;;;;23.13;10.32;;;-2.80;99.90;;;;;;5090384;28;20118;-91
2022/12/18 10:33:30;;;;;;;22.55;9.05;;;-2.60;99.90;;;;;;5108007;28;20075;-89
2022/12/18 10:35:56;;;;;;;18.45;9.18;;;-2.50;99.90;;;;;;5090462;28;20505;-90
2022/12/18 10:38:27;;;;;;;19.17;8.50;;;-2.50;99.90;;;;;;5091116;28;20679;-92
2022/12/18 10:41:00;;;;;;;20.13;9.77;;;-2.50;99.90;;;;;;5110856;28;20043;-90
2022/12/18 10:43:32;;;;;;;13.88;7.82;;;-2.50;99.90;;;;;;5119599;28;20428;-85
2022/12/18 10:46:09;;;;;;;17.73;8.75;;;-2.50;99.90;;;;;;5125467;28;20054;-86
2022/12/18 10:48:46;;;;;;;15.07;8.25;;;-2.50;99.90;;;;;;5114373;28;20040;-86
2022/12/18 10:51:27;;;;;;;14.43;7.40;;;-2.50;99.90;;;;;;5110925;28;20100;-87
2022/12/18 10:54:19;;;;;;;19.58;11.40;;;-2.50;99.90;;;;;;5091218;28;20031;-86
2022/12/18 10:56:44;;;;;;;14.63;7.47;;;-2.50;99.90;;;;;;5098467;28;20055;-89
2022/12/18 10:59:13;;;;;;;15.73;7.97;;;-2.50;99.90;;;;;;5091460;28;20050;-90
2022/12/18 11:01:57;;;;;;;11.35;7.13;;;-2.50;99.90;;;;;;5106903;28;20328;-89
2022/12/18 11:04:29;;;;;;;15.75;7.43;;;-2.40;99.90;;;;;;5090623;28;20382;-88
2022/12/18 11:07:00;;;;;;;11.63;6.57;;;-2.40;99.90;;;;;;5091049;28;20046;-89
2022/12/18 11:09:40;;;;;;;10.90;6.15;;;-2.40;99.90;;;;;;5107319;28;20051;-87
2022/12/18 11:12:22;;;;;;;10.82;5.72;;;-2.30;99.90;;;;;;5108196;28;20135;-88
2022/12/18 11:14:54;;;;;;;10.45;5.97;;;-2.30;99.90;;;;;;5107891;28;20039;-87
2022/12/18 11:17:32;;;;;;;11.32;6.20;;;-2.20;99.90;;;;;;5108544;28;20082;-87
2022/12/18 11:20:00;;;;;;;10.32;5.82;;;-2.10;99.90;;;;;;5110951;28;20078;-90
2022/12/18 11:22:27;;;;;;;9.25;4.85;;;-2.10;99.90;;;;;;5114790;27;20051;-89
2022/12/18 11:25:00;;;;;;;10.05;5.75;;;-2.10;99.90;;;;;;5132567;27;20492;-88
2022/12/18 11:27:27;;;;;;;13.25;5.88;;;-2.00;99.90;;;;;;5114507;27;20051;-89
2022/12/18 11:30:33;;;;;;;8.20;5.28;;;-2.00;99.90;;;;;;5114396;27;20406;-88
2022/12/18 11:33:06;;;;;;;9.85;5.38;;;-1.90;99.90;;;;;;5119047;27;20414;-88
2022/12/18 11:35:49;;;;;;;8.35;5.38;;;-1.80;99.90;;;;;;5120770;27;20051;-81
2022/12/18 11:38:23;;;;;;;9.73;5.80;;;-1.80;99.90;;;;;;5121280;27;20058;-84
2022/12/18 11:41:01;;;;;;;10.20;6.35;;;-1.80;99.90;;;;;;5119530;27;20055;-86
2022/12/18 11:43:48;;;;;;;6.60;4.57;;;-1.70;99.90;;;;;;5118927;27;20035;-85
2022/12/18 11:46:39;;;;;;;10.85;5.07;;;-1.60;99.90;;;;;;5117960;27;20044;-85
2022/12/18 11:49:15;;;;;;;13.75;6.18;;;-1.60;99.90;;;;;;5113036;27;20051;-88
2022/12/18 11:51:51;;;;;;;11.32;5.03;;;-1.20;99.90;;;;;;5112185;27;20128;-87
2022/12/18 11:54:16;;;;;;;10.23;5.10;;;-1.50;99.90;;;;;;5130459;27;20494;-86
2022/12/18 11:56:58;;;;;;;7.75;4.78;;;-1.30;99.90;;;;;;5111710;27;20358;-87
2022/12/18 11:59:40;;;;;;;9.48;5.50;;;-1.50;99.90;;;;;;5095150;27;20102;-88
2022/12/18 12:02:20;;;;;;;9.45;4.72;;;-1.50;99.90;;;;;;5094392;27;20047;-87
2022/12/18 12:05:20;;;;;;;7.75;4.38;;;-1.40;99.90;;;;;;5094713;27;20090;-88
2022/12/18 12:08:24;;;;;;;6.13;4.05;;;-1.40;99.90;;;;;;5115357;27;20130;-88
2022/12/18 12:11:08;;;;;;;11.65;5.20;;;-1.40;99.90;;;;;;5100688;27;20530;-87
2022/12/18 12:13:45;;;;;;;7.90;4.93;;;-1.40;99.90;;;;;;5095686;27;20050;-87
2022/12/18 12:16:16;;;;;;;11.50;5.63;;;-1.30;99.90;;;;;;5098200;27;20085;-88
2022/12/18 12:19:00;;;;;;;8.38;4.63;;;-1.30;99.90;;;;;;5132837;27;20074;-89
2022/12/18 12:21:46;;;;;;;7.82;4.30;;;-1.30;99.90;;;;;;5112713;27;20138;-84
2022/12/18 12:24:51;;;;;;;19.50;7.95;;;-1.30;99.90;;;;;;5113561;27;20526;-86
2022/12/18 12:27:36;;;;;;;20.58;8.20;;;-1.20;99.90;;;;;;5111301;27;20134;-86
2022/12/18 12:30:27;;;;;;;13.05;5.13;;;-1.20;99.90;;;;;;5112985;27;20445;-85
2022/12/18 12:33:11;;;;;;;8.88;4.93;;;-1.20;99.90;;;;;;5096042;27;20488;-86
2022/12/18 12:36:05;;;;;;;7.65;4.38;;;-1.20;99.90;;;;;;5112794;27;20047;-86
2022/12/18 12:38:40;;;;;;;8.15;4.63;;;-1.20;99.90;;;;;;5112702;27;20049;-85
2022/12/18 12:43:12;;;;;;;7.82;4.53;;;-1.10;99.90;;;;;;5095588;27;20047;-83
2022/12/18 12:44:01;;;;;;;8.95;4.53;;;-1.10;99.90;;;;;;5112321;27;20120;-85
2022/12/18 12:46:29;;;;;;;8.70;4.55;;;-1.10;99.90;;;;;;5113056;27;20084;-84
2022/12/18 12:48:58;;;;;;;8.93;4.95;;;-1.10;99.90;;;;;;5112114;27;20086;-83
2022/12/18 12:51:40;;;;;;;7.22;4.72;;;-1.00;99.90;;;;;;5112330;27;20046;-83
2022/12/18 12:54:19;;;;;;;11.98;4.93;;;-1.00;99.90;;;;;;5112288;27;20134;-85
2022/12/18 12:56:59;;;;;;;7.72;4.38;;;-1.00;99.90;;;;;;5130556;27;20284;-85